Time;durP1;ratioP1;P1;durP2;ratioP2;P2;SDS_P1;SDS_P2;PMS_P1;PMS_P2;Temp;Humidity;BMP_temperature;BMP_pressure;BME280_temperature;BME280_humidity;BME280_pressure;Samples;Min_cycle;Max_cycle;Signal;HPM_P1;HPM_P2
2021/05/29 00:01:05;;;;;;;3.70;2.50;;;13.40;47.20;;;;;;5078305;28;20210;-80
2021/05/29 00:03:31;;;;;;;2.58;2.38;;;13.40;47.60;;;;;;5078067;28;20209;-82
2021/05/29 00:05:58;;;;;;;6.30;2.53;;;13.30;48.20;;;;;;5077281;28;20241;-79
2021/05/29 00:08:25;;;;;;;4.43;2.22;;;13.30;47.50;;;;;;5078927;28;20229;-80
2021/05/29 00:10:53;;;;;;;3.17;2.50;;;13.30;47.70;;;;;;5079265;28;20288;-79
2021/05/29 00:13:20;;;;;;;3.28;2.63;;;13.30;47.50;;;;;;5098398;28;20282;-83
2021/05/29 00:15:48;;;;;;;8.95;2.40;;;13.30;47.50;;;;;;5084483;28;20229;-79
2021/05/29 00:18:15;;;;;;;3.40;2.50;;;13.30;47.10;;;;;;5080946;28;20614;-80
2021/05/29 00:20:41;;;;;;;2.63;2.25;;;13.30;47.80;;;;;;5096834;28;20246;-83
2021/05/29 00:23:09;;;;;;;3.55;2.50;;;13.30;47.80;;;;;;5114484;28;20202;-84
2021/05/29 00:25:36;;;;;;;3.83;2.40;;;13.20;48.00;;;;;;5105158;28;20181;-85
2021/05/29 00:28:03;;;;;;;2.75;2.53;;;13.20;48.20;;;;;;5098179;28;20186;-84
2021/05/29 00:30:30;;;;;;;3.08;2.33;;;13.20;48.80;;;;;;5098704;28;20194;-82
2021/05/29 00:32:57;;;;;;;3.85;2.80;;;13.10;49.40;;;;;;5103173;28;20232;-83
2021/05/29 00:35:24;;;;;;;4.45;2.75;;;13.20;49.70;;;;;;5100133;28;20587;-81
2021/05/29 00:37:51;;;;;;;3.33;2.97;;;13.10;49.70;;;;;;5116888;28;20192;-85
2021/05/29 00:40:18;;;;;;;3.90;3.47;;;13.10;50.40;;;;;;5117043;28;20205;-85
2021/05/29 00:42:44;;;;;;;3.22;2.83;;;13.00;52.00;;;;;;5118682;28;20181;-84
2021/05/29 00:45:11;;;;;;;3.40;3.08;;;13.00;52.00;;;;;;5117064;28;20226;-82
2021/05/29 00:47:37;;;;;;;3.70;3.30;;;13.00;52.00;;;;;;5110956;28;20236;-84
2021/05/29 00:50:08;;;;;;;3.58;3.25;;;12.90;52.50;;;;;;5095787;28;20233;-82
2021/05/29 00:52:35;;;;;;;3.42;2.92;;;12.90;53.80;;;;;;5084430;28;20245;-81
2021/05/29 00:55:04;;;;;;;3.60;3.30;;;12.90;54.20;;;;;;5093941;28;20206;-82
2021/05/29 00:57:30;;;;;;;3.78;3.47;;;12.80;55.60;;;;;;5101743;28;20272;-80
2021/05/29 00:59:57;;;;;;;4.50;3.70;;;12.80;57.10;;;;;;5101368;28;20217;-82
2021/05/29 01:02:23;;;;;;;3.90;3.50;;;12.70;58.30;;;;;;5104230;28;20688;-81
2021/05/29 01:04:49;;;;;;;4.18;3.78;;;12.60;59.20;;;;;;5096903;28;20208;-81
2021/05/29 01:07:18;;;;;;;3.55;3.25;;;12.60;59.30;;;;;;5097760;28;20292;-83
2021/05/29 01:09:45;;;;;;;4.13;3.13;;;12.60;59.70;;;;;;5091710;28;20222;-81
2021/05/29 01:12:13;;;;;;;4.05;3.20;;;12.60;60.20;;;;;;5077321;28;20259;-81
2021/05/29 01:14:47;;;;;;;3.70;3.40;;;12.60;60.10;;;;;;5081849;28;20242;-81
2021/05/29 01:17:14;;;;;;;3.90;3.08;;;12.60;60.30;;;;;;5099234;28;20209;-80
2021/05/29 01:19:40;;;;;;;4.75;3.83;;;12.50;60.90;;;;;;5102714;28;20228;-81
2021/05/29 01:22:08;;;;;;;4.10;3.45;;;12.40;61.50;;;;;;5103548;28;20201;-80
2021/05/29 01:24:35;;;;;;;3.60;3.20;;;12.40;60.80;;;;;;5093091;28;20628;-82
2021/05/29 01:27:02;;;;;;;6.80;3.60;;;12.40;60.80;;;;;;5075824;28;20311;-82
2021/05/29 01:29:29;;;;;;;3.65;3.35;;;12.30;60.70;;;;;;5100585;28;20228;-83
2021/05/29 01:32:01;;;;;;;4.30;3.90;;;12.30;60.70;;;;;;5112784;28;20287;-81
2021/05/29 01:34:31;;;;;;;3.83;3.53;;;12.30;60.70;;;;;;5116228;28;20207;-82
2021/05/29 01:36:58;;;;;;;4.43;3.50;;;12.30;60.70;;;;;;5117047;28;20214;-84
2021/05/29 01:39:25;;;;;;;4.25;3.65;;;12.30;61.30;;;;;;5117083;28;20603;-83
2021/05/29 01:41:53;;;;;;;5.03;3.78;;;12.20;61.30;;;;;;5110246;28;20232;-84
2021/05/29 01:44:21;;;;;;;6.47;3.65;;;12.20;61.90;;;;;;5111623;28;20231;-83
2021/05/29 01:46:48;;;;;;;3.90;3.60;;;12.20;62.60;;;;;;5114022;28;20185;-80
2021/05/29 01:49:14;;;;;;;5.22;3.97;;;12.10;62.50;;;;;;5116461;28;20204;-81
2021/05/29 01:51:41;;;;;;;5.78;3.28;;;12.10;62.80;;;;;;5113679;28;20221;-79
2021/05/29 01:54:07;;;;;;;3.97;3.67;;;12.10;63.30;;;;;;5099868;28;20205;-80
2021/05/29 01:56:35;;;;;;;3.67;3.38;;;12.00;63.90;;;;;;5097478;28;20213;-80
2021/05/29 01:59:01;;;;;;;3.67;3.42;;;12.00;64.00;;;;;;5098041;28;20249;-80
2021/05/29 02:01:28;;;;;;;3.90;3.50;;;12.00;64.20;;;;;;5099296;28;20205;-80
2021/05/29 02:03:55;;;;;;;5.50;3.70;;;12.00;64.10;;;;;;5100959;28;20213;-81
2021/05/29 02:06:22;;;;;;;5.20;3.38;;;11.90;64.70;;;;;;5116025;28;20192;-80
2021/05/29 02:08:49;;;;;;;5.50;3.85;;;11.90;64.90;;;;;;5117130;28;20209;-82
2021/05/29 02:11:16;;;;;;;4.97;4.00;;;11.80;65.50;;;;;;5117158;28;20177;-79
2021/05/29 02:13:45;;;;;;;4.47;3.72;;;11.80;65.90;;;;;;5117619;28;20182;-80
2021/05/29 02:16:14;;;;;;;4.10;3.75;;;11.80;66.30;;;;;;5117523;28;20205;-79
2021/05/29 02:18:42;;;;;;;9.02;3.90;;;11.80;66.60;;;;;;5091297;28;20217;-80
2021/05/29 02:21:11;;;;;;;4.00;3.38;;;11.70;67.90;;;;;;5077427;28;20633;-81
2021/05/29 02:23:47;;;;;;;4.13;3.72;;;11.60;69.10;;;;;;5078123;28;20263;-81
2021/05/29 02:26:18;;;;;;;4.68;4.10;;;11.60;69.00;;;;;;5080810;28;20213;-81
2021/05/29 02:28:49;;;;;;;5.00;4.60;;;11.60;69.10;;;;;;5091744;28;20241;-81
2021/05/29 02:31:17;;;;;;;4.75;4.25;;;11.50;69.70;;;;;;5078056;28;20209;-78
2021/05/29 02:33:45;;;;;;;4.18;3.80;;;11.50;70.50;;;;;;5085054;28;20266;-80
2021/05/29 02:39:01;;;;;;;5.07;4.57;;;11.40;72.30;;;;;;5051172;28;20260;-79
2021/05/29 02:51:37;;;;;;;6.63;4.57;;;11.20;75.00;;;;;;5128033;22;20262;-80
2021/05/29 02:54:04;;;;;;;4.57;4.18;;;11.10;74.30;;;;;;5095431;28;20232;-81
2021/05/29 03:03:03;;;;;;;4.50;4.07;;;11.10;74.50;;;;;;5033683;28;20206;-78
2021/05/29 03:05:29;;;;;;;6.95;4.43;;;11.10;74.10;;;;;;5056382;28;20187;-80
2021/05/29 03:07:57;;;;;;;7.00;5.00;;;11.10;74.20;;;;;;5056417;28;20210;-80
2021/05/29 03:10:24;;;;;;;4.60;4.20;;;11.00;74.30;;;;;;5056686;28;20257;-80
2021/05/29 03:12:52;;;;;;;5.93;4.80;;;11.00;74.60;;;;;;5043661;28;20218;-79
2021/05/29 03:15:21;;;;;;;4.22;3.83;;;11.00;74.90;;;;;;5040504;28;20200;-80
2021/05/29 03:17:48;;;;;;;4.40;4.05;;;11.00;74.80;;;;;;5040187;28;20208;-80
2021/05/29 03:20:18;;;;;;;4.25;3.85;;;10.90;75.40;;;;;;5040670;28;20212;-80
2021/05/29 03:22:45;;;;;;;4.50;4.10;;;11.00;75.40;;;;;;5052753;28;20183;-81
2021/05/29 03:25:14;;;;;;;4.68;4.18;;;11.00;75.00;;;;;;5060155;28;20184;-77
2021/05/29 03:27:42;;;;;;;4.47;3.92;;;11.00;74.40;;;;;;5048448;28;20224;-80
2021/05/29 03:30:10;;;;;;;3.60;3.40;;;10.90;73.80;;;;;;5039946;28;20227;-80
2021/05/29 03:32:38;;;;;;;4.63;4.13;;;10.90;73.70;;;;;;5050431;28;20278;-78
2021/05/29 03:35:06;;;;;;;4.97;4.20;;;10.90;73.60;;;;;;5060029;28;20202;-79
2021/05/29 03:37:33;;;;;;;4.60;3.90;;;10.90;73.70;;;;;;5117335;28;20251;-78
2021/05/29 03:40:00;;;;;;;4.47;4.07;;;10.90;73.60;;;;;;5121160;28;20246;-81
2021/05/29 03:42:27;;;;;;;6.40;4.10;;;10.90;74.10;;;;;;5121105;28;20255;-80
2021/05/29 03:44:54;;;;;;;4.15;3.70;;;10.90;73.70;;;;;;5121017;28;20185;-78
2021/05/29 03:47:20;;;;;;;4.95;3.90;;;10.90;72.80;;;;;;5120981;28;20227;-79
2021/05/29 03:49:47;;;;;;;3.80;3.50;;;10.90;72.80;;;;;;5121007;28;20194;-78
2021/05/29 03:52:14;;;;;;;3.90;3.60;;;10.90;72.20;;;;;;5121320;28;20224;-79
2021/05/29 03:54:41;;;;;;;3.65;3.35;;;10.90;70.90;;;;;;5121285;27;20208;-79
2021/05/29 03:57:08;;;;;;;5.22;3.90;;;10.90;70.00;;;;;;5121437;28;20200;-82
2021/05/29 03:59:36;;;;;;;3.97;3.30;;;10.90;69.50;;;;;;5121352;28;20220;-80
2021/05/29 04:02:03;;;;;;;3.63;3.33;;;11.00;68.50;;;;;;5121439;28;20189;-81
2021/05/29 04:04:33;;;;;;;4.22;3.83;;;11.00;67.30;;;;;;5121599;28;20212;-79
2021/05/29 04:07:01;;;;;;;3.63;3.33;;;11.10;66.60;;;;;;5121332;28;20248;-82
2021/05/29 04:09:28;;;;;;;3.83;2.95;;;11.10;65.90;;;;;;5121223;28;20272;-79
2021/05/29 04:11:55;;;;;;;5.55;3.28;;;11.10;65.60;;;;;;5121060;28;20217;-81
2021/05/29 04:14:22;;;;;;;3.50;3.15;;;11.10;65.10;;;;;;5120750;28;20202;-79
2021/05/29 04:16:51;;;;;;;3.80;3.50;;;11.10;64.90;;;;;;5121174;28;20181;-79
2021/05/29 04:19:18;;;;;;;3.25;2.95;;;11.10;64.00;;;;;;5121018;27;20213;-80
2021/05/29 04:21:46;;;;;;;3.63;3.10;;;11.20;63.80;;;;;;5121272;28;20181;-79
2021/05/29 04:24:15;;;;;;;3.00;2.80;;;11.20;63.20;;;;;;5119500;28;20209;-80
2021/05/29 04:26:44;;;;;;;4.72;3.33;;;11.30;62.60;;;;;;5119757;28;20185;-79
2021/05/29 04:29:17;;;;;;;3.22;3.00;;;11.40;61.50;;;;;;5120070;28;20201;-79
2021/05/29 04:31:45;;;;;;;3.60;3.30;;;11.40;60.60;;;;;;5120665;28;20197;-78
2021/05/29 04:34:14;;;;;;;8.52;3.30;;;11.50;60.00;;;;;;5120715;28;20196;-79
2021/05/29 04:36:41;;;;;;;3.40;3.10;;;11.50;60.00;;;;;;5120325;28;20208;-79
2021/05/29 04:39:08;;;;;;;3.10;2.80;;;11.60;60.10;;;;;;5120365;28;20219;-78
2021/05/29 04:41:37;;;;;;;4.15;3.20;;;11.70;59.10;;;;;;5120458;28;20212;-80
2021/05/29 04:44:04;;;;;;;2.85;2.65;;;11.80;57.60;;;;;;5120438;28;20201;-78
2021/05/29 04:46:38;;;;;;;3.20;2.90;;;12.00;57.80;;;;;;5120205;28;20181;-81
2021/05/29 04:49:05;;;;;;;3.17;2.50;;;12.20;56.00;;;;;;5119547;28;20205;-81
2021/05/29 04:51:32;;;;;;;3.75;3.13;;;12.40;55.40;;;;;;5119791;28;20201;-78
2021/05/29 04:53:59;;;;;;;2.88;2.67;;;12.70;54.90;;;;;;5114714;28;20197;-84
2021/05/29 04:56:25;;;;;;;2.78;2.58;;;13.50;51.70;;;;;;5100958;28;20315;-83
2021/05/29 04:58:52;;;;;;;4.70;2.97;;;14.10;48.10;;;;;;5115767;28;20216;-83
2021/05/29 05:01:18;;;;;;;3.10;2.80;;;14.20;47.60;;;;;;5104048;28;20205;-82
2021/05/29 05:03:44;;;;;;;2.60;2.40;;;14.80;45.60;;;;;;5110011;28;20200;-85
2021/05/29 05:06:12;;;;;;;2.60;2.40;;;15.60;43.70;;;;;;5100087;28;20241;-84
2021/05/29 05:08:40;;;;;;;2.60;2.40;;;16.20;41.60;;;;;;5105726;28;20229;-83
2021/05/29 05:11:06;;;;;;;3.37;2.40;;;15.90;41.10;;;;;;5110903;28;20486;-84
2021/05/29 05:13:32;;;;;;;2.40;2.17;;;15.20;44.40;;;;;;5101754;28;20462;-85
2021/05/29 05:15:59;;;;;;;2.83;2.63;;;16.20;41.20;;;;;;5103593;28;20458;-84
2021/05/29 05:18:25;;;;;;;7.10;2.60;;;16.40;40.10;;;;;;5104246;28;20517;-81
2021/05/29 05:20:52;;;;;;;2.20;1.80;;;16.70;38.90;;;;;;5096831;28;20452;-80
2021/05/29 05:23:21;;;;;;;2.50;2.30;;;16.50;39.10;;;;;;5098366;28;20531;-82
2021/05/29 05:25:49;;;;;;;5.00;2.20;;;17.00;38.50;;;;;;5096155;28;20475;-81
2021/05/29 05:28:15;;;;;;;3.60;2.70;;;17.20;37.70;;;;;;5100712;28;20422;-85
2021/05/29 05:30:42;;;;;;;4.23;2.60;;;16.50;39.60;;;;;;5096667;28;20478;-85
2021/05/29 05:33:09;;;;;;;3.80;2.57;;;16.20;40.80;;;;;;5099524;28;20498;-85
2021/05/29 05:35:35;;;;;;;8.77;2.87;;;17.00;38.30;;;;;;5100405;28;20486;-83
2021/05/29 05:38:02;;;;;;;2.47;2.30;;;17.30;36.60;;;;;;5093264;28;20467;-84
2021/05/29 05:40:32;;;;;;;3.43;2.70;;;16.80;37.90;;;;;;5097026;28;20479;-84
2021/05/29 05:42:59;;;;;;;3.00;2.80;;;15.80;40.70;;;;;;5075790;28;20404;-85
2021/05/29 05:45:26;;;;;;;6.53;2.47;;;15.90;40.70;;;;;;5076169;28;20447;-84
2021/05/29 05:47:52;;;;;;;3.00;2.67;;;16.10;40.40;;;;;;5095595;28;20424;-85
2021/05/29 05:50:19;;;;;;;2.80;2.60;;;15.90;41.30;;;;;;5081905;28;20465;-85
2021/05/29 05:52:46;;;;;;;2.47;2.37;;;15.90;40.50;;;;;;5073877;28;20511;-84
2021/05/29 05:55:13;;;;;;;2.57;2.37;;;15.70;41.50;;;;;;5068176;28;20546;-82
2021/05/29 05:57:40;;;;;;;2.60;2.40;;;16.30;39.50;;;;;;5064662;28;20493;-82
2021/05/29 06:00:09;;;;;;;4.10;2.87;;;16.60;39.40;;;;;;5085460;28;20448;-83
2021/05/29 06:02:36;;;;;;;2.77;2.57;;;17.30;36.90;;;;;;5058543;28;20444;-84
2021/05/29 06:05:03;;;;;;;3.67;2.93;;;17.00;38.00;;;;;;5058620;28;20428;-82
2021/05/29 06:07:29;;;;;;;2.87;2.67;;;17.10;37.90;;;;;;5057460;28;20455;-81
2021/05/29 06:09:56;;;;;;;2.87;2.57;;;16.70;39.30;;;;;;5058114;28;20996;-81
2021/05/29 06:12:22;;;;;;;2.93;2.67;;;17.10;39.00;;;;;;5059082;28;20542;-81
2021/05/29 06:20:18;;;;;;;2.87;2.67;;;17.30;37.30;;;;;;5071592;28;20567;-82
2021/05/29 06:22:45;;;;;;;3.13;2.83;;;16.70;39.80;;;;;;5096485;28;20447;-85
2021/05/29 06:25:14;;;;;;;2.57;2.20;;;17.00;38.80;;;;;;5086685;28;20439;-87
2021/05/29 06:31:08;;;;;;;2.93;2.10;;;17.10;37.90;;;;;;5022764;28;20470;-81
2021/05/29 06:33:35;;;;;;;3.47;2.73;;;17.50;38.00;;;;;;5027051;28;20494;-81
2021/05/29 06:36:02;;;;;;;4.50;2.20;;;18.30;36.10;;;;;;5026232;28;20455;-83
2021/05/29 06:38:29;;;;;;;2.27;2.07;;;18.60;34.80;;;;;;5024086;28;20453;-82
2021/05/29 06:40:56;;;;;;;3.10;2.80;;;18.70;34.80;;;;;;5034434;28;20401;-82
2021/05/29 06:43:22;;;;;;;2.90;2.23;;;17.70;36.70;;;;;;5034105;28;20454;-82
2021/05/29 06:45:48;;;;;;;2.27;2.17;;;17.80;36.70;;;;;;5032204;28;20429;-80
2021/05/29 06:48:16;;;;;;;3.40;2.60;;;17.80;36.70;;;;;;5019057;28;20672;-80
2021/05/29 06:50:49;;;;;;;2.67;2.47;;;18.00;35.90;;;;;;5021512;28;20433;-81
2021/05/29 06:53:19;;;;;;;2.97;2.17;;;18.10;36.50;;;;;;5022254;28;20982;-79
2021/05/29 06:58:44;;;;;;;3.33;3.00;;;17.30;36.70;;;;;;5053714;28;20423;-82
2021/05/29 07:01:10;;;;;;;2.87;2.40;;;17.00;37.10;;;;;;5057719;28;20438;-84
2021/05/29 07:03:36;;;;;;;4.50;2.43;;;16.80;38.10;;;;;;5056717;28;20649;-83
2021/05/29 07:06:04;;;;;;;5.73;2.60;;;16.40;39.20;;;;;;5058204;28;20438;-82
2021/05/29 07:08:31;;;;;;;3.17;2.30;;;16.20;39.50;;;;;;5043016;28;20528;-81
2021/05/29 07:10:57;;;;;;;2.87;2.57;;;16.10;40.30;;;;;;5039857;28;20738;-82
2021/05/29 07:13:23;;;;;;;2.60;2.40;;;16.20;39.20;;;;;;5027985;28;20482;-80
2021/05/29 07:15:50;;;;;;;2.50;2.30;;;16.30;39.30;;;;;;5019006;28;21038;-80
2021/05/29 07:18:16;;;;;;;3.40;2.20;;;16.30;39.90;;;;;;5026658;28;20678;-79
2021/05/29 07:20:43;;;;;;;2.40;2.20;;;16.20;39.60;;;;;;5037556;28;20484;-79
2021/05/29 07:23:11;;;;;;;3.83;2.00;;;16.20;39.10;;;;;;5035997;28;20526;-79
2021/05/29 07:25:40;;;;;;;3.30;2.40;;;16.40;39.20;;;;;;5036449;28;20465;-79
2021/05/29 07:28:07;;;;;;;2.47;2.28;;;16.40;38.90;;;;;;5036680;28;20223;-78
2021/05/29 07:30:33;;;;;;;3.15;2.50;;;16.30;38.80;;;;;;5046652;28;20250;-78
2021/05/29 07:32:59;;;;;;;2.10;2.00;;;16.40;39.00;;;;;;5049776;28;20230;-77
2021/05/29 07:35:27;;;;;;;3.27;2.93;;;16.60;38.30;;;;;;5037486;28;21023;-78
2021/05/29 07:37:54;;;;;;;3.20;1.97;;;16.60;38.40;;;;;;5036904;28;21011;-78
2021/05/29 07:40:21;;;;;;;4.00;2.30;;;16.60;38.30;;;;;;5040233;28;20484;-78
2021/05/29 07:42:47;;;;;;;2.30;2.10;;;16.70;37.90;;;;;;5046543;28;20551;-78
2021/05/29 07:45:38;;;;;;;2.17;1.97;;;16.60;37.90;;;;;;5043600;28;20959;-77
2021/05/29 07:48:05;;;;;;;2.93;2.60;;;16.70;37.70;;;;;;5042748;28;20441;-78
2021/05/29 07:50:57;;;;;;;2.47;2.27;;;16.80;36.60;;;;;;5035995;28;20982;-77
2021/05/29 07:53:24;;;;;;;3.73;2.30;;;16.70;37.50;;;;;;5050876;28;21076;-78
2021/05/29 07:55:55;;;;;;;5.03;1.83;;;17.00;36.10;;;;;;5056696;28;20461;-78
2021/05/29 07:58:22;;;;;;;2.77;2.20;;;17.10;36.10;;;;;;5045780;28;20477;-78
2021/05/29 08:00:51;;;;;;;3.00;2.00;;;17.30;36.30;;;;;;5040811;28;20461;-77
2021/05/29 08:03:19;;;;;;;2.30;1.80;;;17.30;36.30;;;;;;5037797;28;20468;-78
2021/05/29 08:05:46;;;;;;;2.07;1.97;;;17.30;36.20;;;;;;5038911;28;20961;-78
2021/05/29 08:08:12;;;;;;;3.20;2.23;;;17.50;34.10;;;;;;5036368;28;20556;-78
2021/05/29 08:10:40;;;;;;;4.37;2.03;;;17.40;34.80;;;;;;5039377;28;20453;-77
2021/05/29 08:13:07;;;;;;;5.97;2.23;;;17.20;34.00;;;;;;5043690;28;20465;-78
2021/05/29 08:15:34;;;;;;;2.90;2.00;;;17.30;35.10;;;;;;5042833;28;20485;-80
2021/05/29 08:18:00;;;;;;;3.73;2.20;;;17.50;34.10;;;;;;5039078;28;20510;-79
2021/05/29 08:20:27;;;;;;;2.10;2.00;;;17.60;33.30;;;;;;5037165;28;21029;-78
2021/05/29 08:22:53;;;;;;;2.10;2.00;;;17.60;33.50;;;;;;5044837;28;20424;-78
2021/05/29 08:25:20;;;;;;;2.10;1.90;;;17.60;33.50;;;;;;5039008;28;20935;-78
2021/05/29 08:27:46;;;;;;;2.53;1.80;;;17.70;33.10;;;;;;5034927;28;20477;-76
2021/05/29 08:30:14;;;;;;;2.33;2.00;;;17.70;32.30;;;;;;5034030;28;21023;-80
2021/05/29 08:32:41;;;;;;;1.90;1.80;;;17.70;32.60;;;;;;5034962;28;20493;-79
2021/05/29 08:35:09;;;;;;;2.43;1.83;;;17.70;34.10;;;;;;5035790;28;20976;-77
2021/05/29 08:37:36;;;;;;;2.80;2.10;;;17.90;32.80;;;;;;5035160;28;20553;-79
2021/05/29 08:40:04;;;;;;;3.10;2.00;;;18.10;32.50;;;;;;5038869;28;20518;-76
2021/05/29 08:42:30;;;;;;;2.43;2.23;;;18.20;32.30;;;;;;5035252;28;20946;-77
2021/05/29 08:44:58;;;;;;;4.10;2.37;;;18.20;31.40;;;;;;5042947;28;20454;-77
2021/05/29 08:47:27;;;;;;;2.27;2.07;;;18.30;29.20;;;;;;5045292;28;20453;-78
2021/05/29 08:49:54;;;;;;;2.20;2.10;;;18.30;30.20;;;;;;5056401;28;20437;-75
2021/05/29 08:52:21;;;;;;;2.80;2.60;;;18.40;32.10;;;;;;5058126;28;20469;-76
2021/05/29 08:54:48;;;;;;;3.07;2.10;;;18.30;31.60;;;;;;5058911;28;20496;-76
2021/05/29 08:57:16;;;;;;;4.10;2.20;;;18.40;30.90;;;;;;5054442;28;20461;-77
2021/05/29 08:59:42;;;;;;;3.80;2.20;;;18.40;31.50;;;;;;5043016;28;20459;-76
2021/05/29 09:02:08;;;;;;;2.47;1.97;;;18.20;30.90;;;;;;5039792;28;20465;-76
2021/05/29 09:04:36;;;;;;;2.63;2.00;;;18.40;30.50;;;;;;5046802;28;20483;-77
2021/05/29 09:07:03;;;;;;;3.23;2.47;;;18.60;30.20;;;;;;5038882;28;20558;-77
2021/05/29 09:09:29;;;;;;;2.40;1.90;;;18.90;28.10;;;;;;5040068;28;20476;-77
2021/05/29 09:11:58;;;;;;;2.80;2.10;;;19.00;28.20;;;;;;5039178;28;20469;-77
2021/05/29 09:14:36;;;;;;;2.27;2.10;;;18.90;28.70;;;;;;5041663;28;20461;-77
2021/05/29 09:17:09;;;;;;;2.50;1.87;;;18.90;28.10;;;;;;5042451;28;20429;-76
2021/05/29 09:20:00;;;;;;;2.80;2.03;;;18.80;28.00;;;;;;5046428;28;20448;-77
2021/05/29 09:22:29;;;;;;;1.83;1.73;;;18.70;28.40;;;;;;5049339;28;20417;-76
2021/05/29 09:25:00;;;;;;;3.23;1.90;;;18.80;28.60;;;;;;5043807;28;20800;-77
2021/05/29 09:27:26;;;;;;;3.70;1.90;;;19.00;27.30;;;;;;5040249;28;20460;-76
2021/05/29 09:29:53;;;;;;;1.80;1.70;;;19.10;24.90;;;;;;5040846;28;20471;-77
2021/05/29 09:32:20;;;;;;;4.20;2.80;;;19.00;25.90;;;;;;5039484;28;20481;-77
2021/05/29 09:34:48;;;;;;;3.43;2.03;;;18.80;26.40;;;;;;5041703;28;20481;-77
2021/05/29 09:37:18;;;;;;;1.83;1.73;;;18.90;25.80;;;;;;5039598;28;20432;-77
2021/05/29 09:39:48;;;;;;;2.90;1.80;;;19.30;25.30;;;;;;5037400;28;20467;-79
2021/05/29 09:42:17;;;;;;;1.90;1.80;;;19.60;26.60;;;;;;5039350;28;20532;-78
2021/05/29 09:44:43;;;;;;;1.80;1.70;;;19.70;27.20;;;;;;5041686;28;20458;-76
2021/05/29 09:47:13;;;;;;;2.20;2.10;;;19.60;26.60;;;;;;5046847;28;20909;-76
2021/05/29 09:49:49;;;;;;;1.90;1.80;;;19.60;26.50;;;;;;5037023;28;20444;-77
2021/05/29 09:52:35;;;;;;;2.33;1.90;;;19.60;26.80;;;;;;5038901;28;20455;-76
2021/05/29 09:55:05;;;;;;;2.60;1.90;;;19.60;26.50;;;;;;5036028;28;20934;-78
2021/05/29 09:57:31;;;;;;;1.83;1.73;;;19.60;25.80;;;;;;5039159;28;20429;-76
2021/05/29 10:00:00;;;;;;;2.30;1.70;;;19.80;25.00;;;;;;5045961;28;20516;-76
2021/05/29 10:02:27;;;;;;;2.03;1.93;;;19.70;24.90;;;;;;5039861;28;20973;-77
2021/05/29 10:04:55;;;;;;;3.03;2.07;;;19.70;25.30;;;;;;5037177;28;20458;-77
2021/05/29 10:07:24;;;;;;;1.67;1.57;;;19.60;24.90;;;;;;5038173;28;20454;-77
2021/05/29 10:09:51;;;;;;;3.60;1.93;;;19.50;25.00;;;;;;5043285;28;21066;-77
2021/05/29 10:12:18;;;;;;;2.10;1.90;;;19.50;24.80;;;;;;5037191;28;20456;-76
2021/05/29 10:14:45;;;;;;;1.93;1.80;;;19.40;23.80;;;;;;5036115;28;20898;-77
2021/05/29 10:17:13;;;;;;;1.97;1.83;;;19.30;23.30;;;;;;5036595;28;20534;-77
2021/05/29 10:19:41;;;;;;;1.73;1.63;;;19.10;23.30;;;;;;5034079;28;20470;-76
2021/05/29 10:22:10;;;;;;;1.40;1.30;;;19.30;23.40;;;;;;5033130;28;20927;-76
2021/05/29 10:24:38;;;;;;;3.60;2.00;;;19.60;22.50;;;;;;5033992;28;20870;-77
2021/05/29 10:27:08;;;;;;;1.60;1.50;;;19.70;22.30;;;;;;5047375;28;20443;-76
2021/05/29 10:29:36;;;;;;;2.30;1.73;;;20.00;22.80;;;;;;5043837;28;20470;-77
2021/05/29 10:32:11;;;;;;;3.10;1.70;;;19.90;22.70;;;;;;5034296;28;20421;-77
2021/05/29 10:34:57;;;;;;;3.47;1.90;;;19.70;23.30;;;;;;5034060;28;20489;-77
2021/05/29 10:37:33;;;;;;;3.43;1.40;;;20.00;22.80;;;;;;5033708;28;20504;-76
2021/05/29 10:40:22;;;;;;;1.63;1.50;;;20.10;21.40;;;;;;5034530;28;20488;-74
2021/05/29 10:43:06;;;;;;;3.53;1.50;;;20.30;22.20;;;;;;5047185;28;20417;-77
2021/05/29 10:45:32;;;;;;;1.70;1.43;;;20.50;21.00;;;;;;5034929;28;20432;-77
2021/05/29 10:48:04;;;;;;;1.53;1.43;;;20.50;21.00;;;;;;5034108;28;20433;-76
2021/05/29 10:50:58;;;;;;;4.33;1.50;;;20.70;21.20;;;;;;5034397;28;20408;-76
2021/05/29 10:53:35;;;;;;;1.50;1.40;;;20.80;20.70;;;;;;5034277;28;20543;-77
2021/05/29 10:56:36;;;;;;;2.80;1.40;;;20.70;21.20;;;;;;5034563;28;20507;-76
2021/05/29 10:59:17;;;;;;;1.50;1.40;;;20.00;20.70;;;;;;4954528;28;20439;-75
2021/05/29 11:02:09;;;;;;;1.40;1.30;;;20.60;21.10;;;;;;4965334;29;20444;-75
2021/05/29 11:04:35;;;;;;;1.10;1.10;;;21.00;21.40;;;;;;4971861;29;20457;-76
2021/05/29 11:07:26;;;;;;;1.47;1.17;;;21.40;19.70;;;;;;4973029;29;20461;-74
2021/05/29 11:09:56;;;;;;;1.27;1.17;;;21.20;19.60;;;;;;5209295;23;20448;-77
2021/05/29 11:12:53;;;;;;;1.40;1.30;;;21.60;20.00;;;;;;5057849;28;20477;-77
2021/05/29 11:15:22;;;;;;;1.87;1.77;;;21.80;20.50;;;;;;5069263;28;20441;-76
2021/05/29 11:18:08;;;;;;;1.57;1.47;;;21.40;21.70;;;;;;5071084;28;20425;-76
2021/05/29 11:21:06;;;;;;;2.30;1.50;;;20.90;22.40;;;;;;5073884;28;20456;-75
2021/05/29 11:23:32;;;;;;;4.40;1.83;;;20.80;23.30;;;;;;5059007;28;20460;-75
2021/05/29 11:25:59;;;;;;;1.73;1.63;;;21.20;22.50;;;;;;5067306;28;20475;-76
2021/05/29 11:28:26;;;;;;;1.80;1.70;;;21.20;21.80;;;;;;5067392;28;20496;-76
2021/05/29 11:30:58;;;;;;;8.20;1.90;;;21.20;21.60;;;;;;5057588;28;20447;-75
2021/05/29 11:33:24;;;;;;;4.47;1.37;;;21.30;22.20;;;;;;5059532;28;20525;-75
2021/05/29 11:35:51;;;;;;;2.37;1.33;;;21.60;21.80;;;;;;5073883;28;20429;-77
2021/05/29 11:38:21;;;;;;;2.60;1.50;;;21.90;21.40;;;;;;5071531;28;20473;-76
2021/05/29 11:40:51;;;;;;;2.27;2.07;;;21.60;21.80;;;;;;5076976;28;20423;-74
2021/05/29 11:43:22;;;;;;;3.30;1.90;;;21.10;22.10;;;;;;5068977;28;20405;-76
2021/05/29 11:45:56;;;;;;;4.10;2.00;;;21.00;22.90;;;;;;5057428;28;20420;-75
2021/05/29 11:48:29;;;;;;;1.97;1.50;;;20.70;23.00;;;;;;5056670;28;20471;-75
2021/05/29 11:51:09;;;;;;;2.03;1.93;;;20.50;22.80;;;;;;5056897;28;20527;-76
2021/05/29 11:53:36;;;;;;;2.43;1.43;;;20.40;22.70;;;;;;5069243;28;20507;-76
2021/05/29 11:56:05;;;;;;;1.57;1.47;;;20.60;22.10;;;;;;5060467;28;20449;-76
2021/05/29 11:58:45;;;;;;;2.63;1.50;;;21.10;21.40;;;;;;5064918;28;20501;-76
2021/05/29 12:01:15;;;;;;;1.70;1.60;;;21.60;21.80;;;;;;5064951;28;20421;-77
2021/05/29 12:03:44;;;;;;;1.60;1.50;;;21.40;21.70;;;;;;5060061;28;20497;-77
2021/05/29 12:06:11;;;;;;;1.70;1.43;;;21.20;21.50;;;;;;5058610;28;20432;-77
2021/05/29 12:08:55;;;;;;;1.60;1.50;;;21.20;21.60;;;;;;5056150;28;20590;-76
2021/05/29 12:11:23;;;;;;;4.27;1.63;;;21.10;21.50;;;;;;5061005;28;20477;-76
2021/05/29 12:14:02;;;;;;;1.47;1.37;;;21.20;21.50;;;;;;5056752;28;20488;-77
2021/05/29 12:16:31;;;;;;;1.73;1.10;;;21.30;21.60;;;;;;5054357;28;20432;-76
2021/05/29 12:18:58;;;;;;;1.50;1.40;;;21.20;21.50;;;;;;5053979;28;20460;-78
2021/05/29 12:21:39;;;;;;;3.30;1.30;;;21.10;21.40;;;;;;5054845;28;20524;-77
2021/05/29 12:24:06;;;;;;;2.73;1.20;;;20.70;21.20;;;;;;5057748;28;20465;-76
2021/05/29 12:26:32;;;;;;;1.73;1.20;;;21.10;21.40;;;;;;5071650;28;20469;-78
2021/05/29 12:28:59;;;;;;;1.40;1.30;;;21.10;21.50;;;;;;5075957;28;20492;-79
2021/05/29 12:31:43;;;;;;;1.10;1.10;;;21.10;21.40;;;;;;5062407;28;20454;-77
2021/05/29 12:34:09;;;;;;;1.27;1.20;;;21.10;20.80;;;;;;5068655;28;20878;-77
2021/05/29 12:37:00;;;;;;;2.20;1.17;;;20.70;21.20;;;;;;5054829;28;20532;-77
2021/05/29 12:39:53;;;;;;;1.30;1.20;;;20.60;21.10;;;;;;5054118;28;20818;-77
2021/05/29 12:42:22;;;;;;;1.00;0.93;;;20.80;21.30;;;;;;5077137;22;21014;-80
2021/05/29 12:44:50;;;;;;;1.27;1.10;;;20.80;20.70;;;;;;5081190;28;20934;-80
2021/05/29 12:47:21;;;;;;;1.50;1.20;;;21.00;20.20;;;;;;5077218;28;20442;-79
2021/05/29 12:49:49;;;;;;;2.23;1.20;;;21.50;19.80;;;;;;5097916;28;20414;-79
2021/05/29 12:52:28;;;;;;;1.00;1.00;;;21.60;18.40;;;;;;5099422;28;20456;-79
2021/05/29 12:54:55;;;;;;;1.10;1.00;;;21.60;18.50;;;;;;5102247;28;20486;-80
2021/05/29 12:57:23;;;;;;;2.00;1.00;;;22.00;18.80;;;;;;5101762;28;20423;-79
2021/05/29 12:59:51;;;;;;;0.90;0.83;;;22.00;18.80;;;;;;5103237;28;20547;-80
2021/05/29 13:02:38;;;;;;;1.37;1.27;;;21.80;18.60;;;;;;5101403;28;20416;-80
2021/05/29 13:07:57;;;;;;;1.53;1.43;;;20.60;19.60;;;;;;5100314;28;20397;-81
2021/05/29 13:10:27;;;;;;;1.20;1.10;;;20.50;20.00;;;;;;5099224;28;20465;-80
2021/05/29 13:13:01;;;;;;;1.30;1.20;;;20.70;19.20;;;;;;5099300;28;20458;-79
2021/05/29 13:15:29;;;;;;;1.33;1.23;;;20.90;19.00;;;;;;5096961;28;20482;-79
2021/05/29 13:18:11;;;;;;;1.37;1.20;;;20.60;19.00;;;;;;5096980;28;20806;-78
2021/05/29 13:20:39;;;;;;;0.97;0.93;;;20.20;19.50;;;;;;5098555;28;20513;-79
2021/05/29 13:23:06;;;;;;;1.00;1.00;;;20.30;19.90;;;;;;5097742;28;20933;-80
2021/05/29 13:25:43;;;;;;;2.50;1.03;;;20.60;19.50;;;;;;5095943;28;20541;-80
2021/05/29 13:28:12;;;;;;;0.90;0.90;;;20.70;18.90;;;;;;5095327;28;20464;-79
2021/05/29 13:30:39;;;;;;;1.00;1.00;;;20.50;19.10;;;;;;5097416;28;20410;-79
2021/05/29 13:33:07;;;;;;;0.80;0.70;;;20.40;19.30;;;;;;5100618;28;20675;-81